createdAt,value
2018-12-02T00:00:26.642Z,259.57
2018-12-02T00:02:55.024Z,200.13
2018-12-02T00:05:23.415Z,172.03
2018-12-02T00:07:51.483Z,176.43
2018-12-02T00:10:20.114Z,164.43
2018-12-02T00:12:48.342Z,159.33
2018-12-02T00:15:17.350Z,163.80
2018-12-02T00:17:45.514Z,182.23
2018-12-02T00:20:14.357Z,221.33
2018-12-02T00:22:42.464Z,220.10
2018-12-02T00:25:12.351Z,244.40
2018-12-02T00:27:40.621Z,229.50
2018-12-02T00:30:14.555Z,218.57
2018-12-02T00:32:42.624Z,209.17
2018-12-02T00:35:11.864Z,264.93
2018-12-02T00:37:40.192Z,238.90
2018-12-02T00:40:14.954Z,206.63
2018-12-02T00:42:45.053Z,183.17
2018-12-02T00:45:15.424Z,210.93
2018-12-02T00:47:43.664Z,205.67
2018-12-02T00:50:15.085Z,180.63
2018-12-02T00:52:44.620Z,252.87
2018-12-02T00:55:14.680Z,257.03
2018-12-02T00:57:42.654Z,248.93
2018-12-02T01:00:11.976Z,240.70
2018-12-02T01:02:40.224Z,222.27
2018-12-02T01:05:10.576Z,248.93
2018-12-02T01:07:38.698Z,225.30
2018-12-02T01:10:09.956Z,206.07
2018-12-02T01:12:38.887Z,224.47
2018-12-02T01:15:09.037Z,211.90
2018-12-02T01:17:37.120Z,219.80
2018-12-02T01:20:22.193Z,224.17
2018-12-02T01:22:50.415Z,217.60
2018-12-02T01:25:18.481Z,223.00
2018-12-02T01:27:46.803Z,234.47
2018-12-02T01:30:15.853Z,210.10
2018-12-02T01:32:43.942Z,208.80
2018-12-02T01:35:12.311Z,237.73
2018-12-02T01:37:40.637Z,206.57
2018-12-02T01:40:16.440Z,231.40
2018-12-02T01:42:44.598Z,217.33
2018-12-02T01:45:17.471Z,211.97
2018-12-02T01:47:45.516Z,216.47
2018-12-02T01:50:18.227Z,214.80
2018-12-02T01:52:49.375Z,229.87
2018-12-02T01:55:17.509Z,192.73
2018-12-02T01:57:45.791Z,168.03
2018-12-02T02:00:17.691Z,229.30
2018-12-02T02:02:46.660Z,233.83
2018-12-02T02:05:15.476Z,230.77
2018-12-02T02:07:43.512Z,256.43
2018-12-02T02:10:16.380Z,267.00
2018-12-02T02:12:45.075Z,259.77
2018-12-02T02:15:14.127Z,236.70
2018-12-02T02:17:42.156Z,233.07
2018-12-02T02:20:21.354Z,235.00
2018-12-02T02:22:49.375Z,223.67
2018-12-02T02:25:18.273Z,222.37
2018-12-02T02:27:49.548Z,229.03
2018-12-02T02:30:22.225Z,219.50
2018-12-02T02:32:50.476Z,209.67
2018-12-02T02:35:20.116Z,249.17
2018-12-02T02:37:49.418Z,245.43
2018-12-02T02:40:21.314Z,226.33
2018-12-02T02:42:49.753Z,264.43
2018-12-02T02:45:17.855Z,263.53
2018-12-02T02:47:45.947Z,302.63
2018-12-02T02:50:24.342Z,292.63
2018-12-02T02:53:01.928Z,330.53
2018-12-02T02:55:30.170Z,321.20
2018-12-02T02:57:58.408Z,306.70
2018-12-02T03:00:27.446Z,292.83
2018-12-02T03:02:56.628Z,262.27
2018-12-02T03:05:24.833Z,274.17
2018-12-02T03:07:53.825Z,274.00
2018-12-02T03:10:22.135Z,277.83
2018-12-02T03:12:52.185Z,284.87
2018-12-02T03:15:21.652Z,275.87
2018-12-02T03:17:50.604Z,285.67
2018-12-02T03:20:19.638Z,276.03
2018-12-02T03:22:53.242Z,277.00
2018-12-02T03:25:22.238Z,243.03
2018-12-02T03:27:50.901Z,278.30
2018-12-02T03:30:20.837Z,288.60
2018-12-02T03:32:49.373Z,259.60
2018-12-02T03:35:19.345Z,247.43
2018-12-02T03:37:47.399Z,223.37
2018-12-02T03:40:18.260Z,251.10
2018-12-02T03:42:46.251Z,233.00
2018-12-02T03:45:15.366Z,263.10
2018-12-02T03:47:43.427Z,226.20
2018-12-02T03:50:17.552Z,204.93
2018-12-02T03:52:42.215Z,232.07
2018-12-02T03:55:10.431Z,242.53
2018-12-02T03:57:38.551Z,217.67
2018-12-02T04:00:16.029Z,193.47
2018-12-02T04:02:44.192Z,193.83
2018-12-02T04:05:15.484Z,186.83
2018-12-02T04:07:43.714Z,191.17
2018-12-02T04:10:13.427Z,201.93
2018-12-02T04:12:41.581Z,195.63
2018-12-02T04:15:15.315Z,181.37
2018-12-02T04:17:43.715Z,213.23
2018-12-02T04:20:12.633Z,214.60
2018-12-02T04:22:40.754Z,208.03
2018-12-02T04:25:12.855Z,224.30
2018-12-02T04:27:41.190Z,210.63
2018-12-02T04:30:10.731Z,181.27
2018-12-02T04:32:38.869Z,237.37
2018-12-02T04:35:08.477Z,211.17
2018-12-02T04:37:36.525Z,229.50
2018-12-02T04:40:06.805Z,205.73
2018-12-02T04:42:34.927Z,203.37
2018-12-02T04:45:03.028Z,215.77
2018-12-02T04:47:31.088Z,205.47
2018-12-02T04:49:59.270Z,225.90
2018-12-02T04:52:27.397Z,215.37
2018-12-02T04:54:55.439Z,204.60
2018-12-02T04:57:23.485Z,204.57
2018-12-02T04:59:51.549Z,207.80
2018-12-02T05:02:19.587Z,233.23
2018-12-02T05:04:47.666Z,239.43
2018-12-02T05:07:16.481Z,223.37
2018-12-02T05:09:44.544Z,190.97
2018-12-02T05:12:12.741Z,281.50
2018-12-02T05:14:41.149Z,266.37
2018-12-02T05:17:10.125Z,287.10
2018-12-02T05:19:38.217Z,244.57
2018-12-02T05:22:06.540Z,285.43
2018-12-02T05:24:35.616Z,272.00
2018-12-02T05:27:03.929Z,250.23
2018-12-02T05:29:34.268Z,252.73
2018-12-02T05:32:02.480Z,239.43
2018-12-02T05:34:30.705Z,218.53
2018-12-02T05:37:00.291Z,207.70
2018-12-02T05:39:28.338Z,213.20
2018-12-02T05:42:02.142Z,240.70
2018-12-02T05:44:30.391Z,247.83
2018-12-02T05:46:59.160Z,241.57
2018-12-02T05:49:27.184Z,261.33
2018-12-02T05:51:55.450Z,255.37
2018-12-02T05:54:23.525Z,245.43
2018-12-02T05:56:51.583Z,247.87
2018-12-02T05:59:19.970Z,252.17
2018-12-02T06:01:48.160Z,248.53
2018-12-02T06:04:16.307Z,277.03
2018-12-02T06:06:44.647Z,233.03
2018-12-02T06:09:13.206Z,262.40
2018-12-02T06:11:43.764Z,254.60
2018-12-02T06:14:09.517Z,286.90
2018-12-02T06:16:37.641Z,247.93
2018-12-02T06:19:05.793Z,267.27
2018-12-02T06:21:34.455Z,221.60
2018-12-02T06:24:05.877Z,255.93
2018-12-02T06:26:34.097Z,285.33
2018-12-02T06:29:02.342Z,277.87
2018-12-02T06:31:30.668Z,251.27
2018-12-02T06:33:59.786Z,223.53
2018-12-02T06:36:28.987Z,290.20
2018-12-02T06:38:58.463Z,224.53
2018-12-02T06:41:28.102Z,221.70
2018-12-02T06:43:56.288Z,263.17
2018-12-02T06:46:24.598Z,259.80
2018-12-02T06:48:54.947Z,226.67
2018-12-02T06:51:23.393Z,231.40
2018-12-02T06:53:51.767Z,229.00
2018-12-02T06:56:22.138Z,223.40
2018-12-02T06:59:55.242Z,203.77
2018-12-02T07:02:46.452Z,232.40
2018-12-02T07:05:21.716Z,258.37
2018-12-02T07:07:51.593Z,242.87
2018-12-02T07:10:20.010Z,256.77
2018-12-02T07:12:48.048Z,243.33
2018-12-02T07:15:17.502Z,226.63
2018-12-02T07:17:45.696Z,252.00
2018-12-02T07:20:15.134Z,232.43
2018-12-02T07:22:43.981Z,237.57
2018-12-02T07:25:13.677Z,219.80
2018-12-02T07:27:41.740Z,218.83
2018-12-02T07:30:11.168Z,209.07
2018-12-02T07:32:50.121Z,220.87
2018-12-02T07:35:19.495Z,194.20
2018-12-02T07:37:49.996Z,205.47
2018-12-02T07:40:34.089Z,209.17
2018-12-02T07:43:03.133Z,186.83
2018-12-02T07:45:31.797Z,163.83
2018-12-02T07:48:00.876Z,191.43
2018-12-02T07:50:29.093Z,162.63
2018-12-02T07:52:57.150Z,159.10
2018-12-02T07:55:25.285Z,123.90
2018-12-02T07:57:53.409Z,162.60
2018-12-02T08:00:21.509Z,168.80
2018-12-02T08:02:49.613Z,156.63
2018-12-02T08:05:18.048Z,164.10
2018-12-02T08:07:48.595Z,162.70
2018-12-02T08:10:19.009Z,166.77
2018-12-02T08:12:47.106Z,186.57
2018-12-02T08:15:18.150Z,172.20
2018-12-02T08:17:46.338Z,165.90
2018-12-02T08:20:18.453Z,175.10
2018-12-02T08:22:51.283Z,181.63
2018-12-02T08:25:17.594Z,178.27
2018-12-02T08:27:45.685Z,164.37
2018-12-02T08:30:18.348Z,165.33
2018-12-02T08:32:47.159Z,160.97
2018-12-02T08:35:16.253Z,137.70
2018-12-02T08:37:45.858Z,141.80
2018-12-02T08:40:14.195Z,143.83
2018-12-02T08:42:42.908Z,164.13
2018-12-02T08:45:14.127Z,139.77
2018-12-02T08:47:42.956Z,139.80
2018-12-02T08:50:16.315Z,129.67
2018-12-02T08:52:46.936Z,133.77
2018-12-02T08:55:17.993Z,187.83
2018-12-02T08:57:47.403Z,161.53
2018-12-02T09:00:20.753Z,121.10
2018-12-02T09:02:51.787Z,149.63
2018-12-02T09:05:19.936Z,138.73
2018-12-02T09:07:51.209Z,139.70
2018-12-02T09:10:23.177Z,141.63
2018-12-02T09:12:54.081Z,183.80
2018-12-02T09:15:22.558Z,175.90
2018-12-02T09:17:51.817Z,162.67
2018-12-02T09:20:28.111Z,156.57
2018-12-02T09:22:56.267Z,163.33
2018-12-02T09:25:24.967Z,162.80
2018-12-02T09:27:53.870Z,141.73
2018-12-02T09:30:23.400Z,161.93
2018-12-02T09:32:51.819Z,135.20
2018-12-02T09:35:21.731Z,152.40
2018-12-02T09:37:50.221Z,125.27
2018-12-02T09:40:18.683Z,141.97
2018-12-02T09:42:47.805Z,157.67
2018-12-02T09:45:21.169Z,122.97
2018-12-02T09:47:50.096Z,137.23
2018-12-02T09:50:18.537Z,144.03
2018-12-02T09:52:46.635Z,138.70
2018-12-02T09:55:24.628Z,128.27
2018-12-02T09:57:55.347Z,134.40
2018-12-02T10:00:23.575Z,145.20
2018-12-02T10:02:53.575Z,132.63
2018-12-02T10:05:21.737Z,144.63
2018-12-02T10:07:50.183Z,121.83
2018-12-02T10:10:22.793Z,147.73
2018-12-02T10:12:58.019Z,141.10
2018-12-02T10:15:30.542Z,140.10
2018-12-02T10:17:58.959Z,135.43
2018-12-02T10:20:28.259Z,148.23
2018-12-02T10:22:56.783Z,142.10
2018-12-02T10:25:25.389Z,132.20
2018-12-02T10:27:55.844Z,128.77
2018-12-02T10:30:24.872Z,138.97
2018-12-02T10:32:54.104Z,128.67
2018-12-02T10:35:22.444Z,134.83
2018-12-02T10:37:51.706Z,128.87
2018-12-02T10:40:22.816Z,139.07
2018-12-02T10:42:51.360Z,135.50
2018-12-02T10:45:23.768Z,124.80
2018-12-02T10:47:54.101Z,108.37
2018-12-02T10:50:35.379Z,115.53
2018-12-02T10:53:05.981Z,113.17
2018-12-02T10:55:44.322Z,114.43
2018-12-02T10:58:18.156Z,115.60
2018-12-02T11:00:58.670Z,115.83
2018-12-02T11:03:26.930Z,104.37
2018-12-02T11:05:54.991Z,104.43
2018-12-02T11:08:23.380Z,100.07
2018-12-02T11:10:51.736Z,101.17
2018-12-02T11:13:19.864Z,109.80
2018-12-02T11:15:48.184Z,97.13
2018-12-02T11:18:17.417Z,103.03
2018-12-02T11:20:45.675Z,104.53
2018-12-02T11:23:13.839Z,103.37
2018-12-02T11:25:42.616Z,111.17
2018-12-02T11:28:11.086Z,104.23
2018-12-02T11:30:40.868Z,100.67
2018-12-02T11:33:09.264Z,100.20
2018-12-02T11:35:37.653Z,104.97
2018-12-02T11:38:10.388Z,107.07
2018-12-02T11:40:40.938Z,112.23
2018-12-02T11:43:11.402Z,109.00
2018-12-02T11:45:41.896Z,106.63
2018-12-02T11:48:10.278Z,111.63
2018-12-02T11:50:39.226Z,105.10
2018-12-02T11:53:08.842Z,107.47
2018-12-02T11:55:37.200Z,100.60
2018-12-02T11:58:07.575Z,107.77
2018-12-02T12:00:39.368Z,107.63
2018-12-02T12:03:07.892Z,95.07
2018-12-02T12:05:36.992Z,95.87
2018-12-02T12:08:06.041Z,90.37
2018-12-02T12:10:34.126Z,102.30
2018-12-02T12:13:02.282Z,85.33
2018-12-02T12:15:31.118Z,82.23
2018-12-02T12:17:59.793Z,102.63
2018-12-02T12:20:31.225Z,100.47
2018-12-02T12:23:00.310Z,104.57
2018-12-02T12:25:29.891Z,94.73
2018-12-02T12:27:59.417Z,93.20
2018-12-02T12:30:28.862Z,93.03
2018-12-02T12:32:58.826Z,88.90
2018-12-02T12:35:27.719Z,90.67
2018-12-02T12:37:59.185Z,83.83
2018-12-02T12:40:31.937Z,83.30
2018-12-02T12:43:10.970Z,75.67
2018-12-02T12:45:41.772Z,89.10
2018-12-02T12:48:11.738Z,87.43
2018-12-02T12:50:40.941Z,77.87
2018-12-02T12:53:09.133Z,77.30
2018-12-02T12:55:37.280Z,79.80
2018-12-02T12:58:06.484Z,91.27
2018-12-02T13:00:35.583Z,87.53
2018-12-02T13:03:03.725Z,83.03
2018-12-02T13:05:32.017Z,78.00
2018-12-02T13:08:01.117Z,83.77
2018-12-02T13:10:29.302Z,76.43
2018-12-02T13:12:57.511Z,82.53
2018-12-02T13:15:26.006Z,85.30
2018-12-02T13:17:56.407Z,80.40
2018-12-02T13:20:28.036Z,87.37
2018-12-02T13:22:58.700Z,83.63
2018-12-02T13:25:27.266Z,86.00
2018-12-02T13:27:55.248Z,80.97
2018-12-02T13:30:24.230Z,87.53
2018-12-02T13:32:53.405Z,81.57
2018-12-02T13:35:21.683Z,83.20
2018-12-02T13:37:49.956Z,80.40
2018-12-02T13:40:19.492Z,80.63
2018-12-02T13:42:50.934Z,80.00
2018-12-02T13:45:20.426Z,86.13
2018-12-02T13:47:48.508Z,87.03
2018-12-02T13:50:21.395Z,91.00
2018-12-02T13:52:54.192Z,89.20
2018-12-02T13:55:24.534Z,83.13
2018-12-02T13:57:54.443Z,81.60
2018-12-02T14:00:24.200Z,85.80
2018-12-02T14:03:08.223Z,87.47
2018-12-02T14:05:38.312Z,86.03
2018-12-02T14:08:06.556Z,84.40
2018-12-02T14:10:35.476Z,89.93
2018-12-02T14:13:11.908Z,85.53
2018-12-02T14:15:50.326Z,88.57
2018-12-02T14:18:23.784Z,86.57
2018-12-02T14:20:52.598Z,84.17
2018-12-02T14:23:20.807Z,91.77
2018-12-02T14:25:49.112Z,102.00
2018-12-02T14:28:20.626Z,108.97
2018-12-02T14:30:50.308Z,132.90
2018-12-02T14:33:21.058Z,135.17
2018-12-02T14:35:49.361Z,140.17
2018-12-02T14:38:17.510Z,136.13
2018-12-02T14:40:47.817Z,150.80
2018-12-02T14:43:15.964Z,138.13
2018-12-02T14:45:44.956Z,128.00
2018-12-02T14:48:13.010Z,153.90
2018-12-02T14:50:41.138Z,157.17
2018-12-02T14:53:11.349Z,151.43
2018-12-02T14:55:40.578Z,194.47
2018-12-02T14:58:09.090Z,218.63
2018-12-02T15:00:38.067Z,174.97
2018-12-02T15:03:07.263Z,205.03
2018-12-02T15:05:36.334Z,192.03
2018-12-02T15:08:04.485Z,186.20
2018-12-02T15:10:32.763Z,186.70
2018-12-02T15:13:00.737Z,194.97
2018-12-02T15:15:28.733Z,170.30
2018-12-02T15:17:56.798Z,166.93
2018-12-02T15:20:25.140Z,182.27
2018-12-02T15:22:53.453Z,167.27
2018-12-02T15:25:21.701Z,171.20
2018-12-02T15:27:49.818Z,188.77
2018-12-02T15:30:18.482Z,175.07
2018-12-02T15:32:48.108Z,188.43
2018-12-02T15:35:17.560Z,206.33
2018-12-02T15:38:17.461Z,211.73
2018-12-02T15:40:45.763Z,167.87
2018-12-02T15:43:15.684Z,173.93
2018-12-02T15:45:45.116Z,183.30
2018-12-02T15:48:14.125Z,183.07
2018-12-02T15:50:50.177Z,182.80
2018-12-02T15:53:15.838Z,191.60
2018-12-02T15:55:44.103Z,192.23
2018-12-02T15:58:14.022Z,242.50
2018-12-02T16:00:48.412Z,213.53
2018-12-02T16:03:17.225Z,313.00
2018-12-02T16:05:45.944Z,216.73
2018-12-02T16:08:16.223Z,209.43
2018-12-02T16:10:45.163Z,194.43
2018-12-02T16:13:13.381Z,183.47
2018-12-02T16:15:42.639Z,185.03
2018-12-02T16:18:12.183Z,198.43
2018-12-02T16:20:58.903Z,165.23
2018-12-02T16:23:27.896Z,156.80
2018-12-02T16:25:56.038Z,155.53
2018-12-02T16:28:25.248Z,171.33
2018-12-02T16:31:00.787Z,201.47
2018-12-02T16:33:35.061Z,237.17
2018-12-02T16:36:04.980Z,256.57
2018-12-02T16:38:33.378Z,227.80
2018-12-02T16:41:01.612Z,273.63
2018-12-02T16:43:36.714Z,221.73
2018-12-02T16:46:07.161Z,219.00
2018-12-02T16:48:36.109Z,199.87
2018-12-02T16:51:07.386Z,187.20
2018-12-02T16:53:45.186Z,200.23
2018-12-02T16:56:16.913Z,180.13
2018-12-02T16:58:50.797Z,186.97
2018-12-02T17:01:23.356Z,157.23
2018-12-02T17:03:55.722Z,166.23
2018-12-02T17:06:28.239Z,178.87
2018-12-02T17:08:57.499Z,191.97
2018-12-02T17:11:25.819Z,191.70
2018-12-02T17:13:55.008Z,153.27
2018-12-02T17:16:23.863Z,161.80
2018-12-02T17:18:57.907Z,152.33
2018-12-02T17:21:28.657Z,143.13
2018-12-02T17:23:58.804Z,151.80
2018-12-02T17:26:29.261Z,143.73
2018-12-02T17:29:00.322Z,146.17
2018-12-02T17:34:44.467Z,170.13
2018-12-02T17:37:16.092Z,162.47
2018-12-02T17:39:50.102Z,158.30
2018-12-02T17:42:20.656Z,189.80
2018-12-02T17:44:53.453Z,198.23
2018-12-02T17:47:21.729Z,212.17
2018-12-02T17:49:50.065Z,203.30
2018-12-02T17:52:18.565Z,188.87
2018-12-02T17:54:50.199Z,202.17
2018-12-02T17:57:23.380Z,213.80
2018-12-02T17:59:51.716Z,219.23
2018-12-02T18:02:23.356Z,222.77
2018-12-02T18:04:55.147Z,271.17
2018-12-02T18:07:24.317Z,296.77
2018-12-02T18:09:55.224Z,289.20
2018-12-02T18:12:27.016Z,292.83
2018-12-02T18:14:55.188Z,306.17
2018-12-02T18:17:25.205Z,292.30
2018-12-02T18:19:53.710Z,298.90
2018-12-02T18:22:22.026Z,291.90
2018-12-02T18:24:50.795Z,292.87
2018-12-02T18:27:19.072Z,296.03
2018-12-02T18:29:47.273Z,289.63
2018-12-02T18:32:15.908Z,289.43
2018-12-02T18:34:45.528Z,288.27
2018-12-02T18:37:14.581Z,272.03
2018-12-02T18:39:44.276Z,275.53
2018-12-02T18:42:13.892Z,263.07
2018-12-02T18:44:43.476Z,260.53
2018-12-02T18:47:11.102Z,268.93
2018-12-02T18:49:39.589Z,260.63
2018-12-02T18:52:08.836Z,269.80
2018-12-02T18:54:37.489Z,278.87
2018-12-02T18:57:06.662Z,281.53
2018-12-02T18:59:36.220Z,289.37
2018-12-02T19:02:05.041Z,282.13
2018-12-02T19:04:33.160Z,309.93
2018-12-02T19:07:01.505Z,341.53
2018-12-02T19:09:29.609Z,361.00
2018-12-02T19:11:58.817Z,368.07
2018-12-02T19:14:27.344Z,377.67
2018-12-02T19:16:56.202Z,372.33
2018-12-02T19:19:24.952Z,383.40
2018-12-02T19:21:54.460Z,387.80
2018-12-02T19:24:26.958Z,375.67
2018-12-02T19:26:55.301Z,372.50
2018-12-02T19:29:25.083Z,358.53
2018-12-02T19:31:53.537Z,339.43
2018-12-02T19:34:22.241Z,370.07
2018-12-02T19:36:52.778Z,352.13
2018-12-02T19:39:20.816Z,331.20
2018-12-02T19:41:48.851Z,368.83
2018-12-02T19:44:18.117Z,349.00
2018-12-02T19:46:47.340Z,323.30
2018-12-02T19:49:16.617Z,318.07
2018-12-02T19:51:45.069Z,351.20
2018-12-02T19:54:13.605Z,320.13
2018-12-02T19:56:41.882Z,337.23
2018-12-02T19:59:10.251Z,318.30
2018-12-02T20:01:38.623Z,327.77
2018-12-02T20:04:06.709Z,325.33
2018-12-02T20:06:35.351Z,325.33
2018-12-02T20:09:05.194Z,304.00
2018-12-02T20:11:34.011Z,329.33
2018-12-02T20:14:02.791Z,318.37
2018-12-02T20:16:31.141Z,338.13
2018-12-02T20:18:59.567Z,349.77
2018-12-02T20:21:30.712Z,397.83
2018-12-02T20:24:04.310Z,421.00
2018-12-02T20:26:32.492Z,448.07
2018-12-02T20:29:00.538Z,443.33
2018-12-02T20:31:30.106Z,534.87
2018-12-02T20:33:58.117Z,641.60
2018-12-02T20:36:26.744Z,706.63
2018-12-02T20:38:54.994Z,709.77
2018-12-02T20:41:23.010Z,741.03
2018-12-02T20:43:50.986Z,780.20
2018-12-02T20:46:19.006Z,803.13
2018-12-02T20:48:47.173Z,797.20
2018-12-02T20:51:15.129Z,745.03
2018-12-02T20:53:43.249Z,730.40
2018-12-02T20:56:11.362Z,726.17
2018-12-02T20:58:39.431Z,743.40
2018-12-02T21:01:07.698Z,659.83
2018-12-02T21:03:39.678Z,663.23
2018-12-02T21:06:13.942Z,646.07
2018-12-02T21:08:42.073Z,571.43
2018-12-02T21:11:10.285Z,584.70
2018-12-02T21:13:38.716Z,576.57
2018-12-02T21:16:07.052Z,591.50
2018-12-02T21:18:35.211Z,515.97
2018-12-02T21:21:03.357Z,581.73
2018-12-02T21:23:31.500Z,552.93
2018-12-02T21:25:59.808Z,489.10
2018-12-02T21:28:28.083Z,548.20
2018-12-02T21:30:56.137Z,570.30
2018-12-02T21:33:24.196Z,512.63
2018-12-02T21:35:52.382Z,496.20
2018-12-02T21:38:20.576Z,464.40
2018-12-02T21:40:48.662Z,533.87
2018-12-02T21:43:16.801Z,470.43
2018-12-02T21:45:45.188Z,521.40
2018-12-02T21:48:18.185Z,545.77
2018-12-02T21:50:49.337Z,567.47
2018-12-02T21:53:17.659Z,534.23
2018-12-02T21:55:46.338Z,533.60
2018-12-02T21:58:14.441Z,530.80
2018-12-02T22:00:45.201Z,572.30
2018-12-02T22:03:14.112Z,520.57
2018-12-02T22:05:42.390Z,502.50
2018-12-02T22:08:10.336Z,449.40
2018-12-02T22:10:38.540Z,469.43
2018-12-02T22:13:06.604Z,502.67
2018-12-02T22:15:35.813Z,526.57
2018-12-02T22:18:04.370Z,507.73
2018-12-02T22:20:32.459Z,491.37
2018-12-02T22:23:00.583Z,535.23
2018-12-02T22:25:28.684Z,506.60
2018-12-02T22:27:58.080Z,516.90
2018-12-02T22:30:26.384Z,497.67
2018-12-02T22:32:56.960Z,476.47
2018-12-02T22:35:26.944Z,483.30
2018-12-02T22:37:55.204Z,529.90
2018-12-02T22:40:24.310Z,554.90
2018-12-02T22:42:53.215Z,564.97
2018-12-02T22:45:26.318Z,588.75
2018-12-02T22:47:54.458Z,571.60
2018-12-02T22:50:23.433Z,544.93
2018-12-02T22:52:52.479Z,562.17
2018-12-02T22:55:20.596Z,576.07
2018-12-02T22:57:48.832Z,553.37
2018-12-02T23:02:26.213Z,561.60
2018-12-02T23:04:54.577Z,560.40
2018-12-02T23:07:22.720Z,546.63
2018-12-02T23:09:50.947Z,550.40
2018-12-02T23:12:19.041Z,553.60
2018-12-02T23:14:47.093Z,548.03
2018-12-02T23:17:20.462Z,564.43
2018-12-02T23:19:48.698Z,565.50
2018-12-02T23:22:17.090Z,542.20
2018-12-02T23:24:45.177Z,533.50
2018-12-02T23:27:13.208Z,538.47
2018-12-02T23:29:41.293Z,548.20
2018-12-02T23:32:09.604Z,522.13
2018-12-02T23:34:37.783Z,510.37
2018-12-02T23:37:05.867Z,524.03
2018-12-02T23:39:34.203Z,565.20
2018-12-02T23:42:02.281Z,558.63
2018-12-02T23:44:30.228Z,549.47
2018-12-02T23:46:58.963Z,554.73
2018-12-02T23:49:27.311Z,559.80
2018-12-02T23:51:55.313Z,511.20
2018-12-02T23:54:23.361Z,476.10
2018-12-02T23:56:51.469Z,479.40
2018-12-02T23:59:19.439Z,469.70
